sensor_id;sensor_type;location;lat;lon;timestamp;pressure;altitude;pressure_sealevel;temperature;humidity
20043;BME280;10182;52.896;6.496;2023-05-17T00:03:40;102246.13;;;8.88;100.00
20043;BME280;10182;52.896;6.496;2023-05-17T00:08:41;102252.59;;;8.68;100.00
20043;BME280;10182;52.896;6.496;2023-05-17T00:13:44;102249.22;;;8.57;100.00
20043;BME280;10182;52.896;6.496;2023-05-17T00:18:46;102257.41;;;8.37;100.00
20043;BME280;10182;52.896;6.496;2023-05-17T00:23:48;102260.19;;;8.26;100.00
20043;BME280;10182;52.896;6.496;2023-05-17T00:28:51;102272.75;;;8.02;100.00
20043;BME280;10182;52.896;6.496;2023-05-17T00:33:53;102262.34;;;7.93;100.00
20043;BME280;10182;52.896;6.496;2023-05-17T00:38:54;102267.75;;;7.81;100.00
20043;BME280;10182;52.896;6.496;2023-05-17T00:43:57;102270.53;;;7.68;100.00
20043;BME280;10182;52.896;6.496;2023-05-17T00:49:00;102265.34;;;7.57;100.00
20043;BME280;10182;52.896;6.496;2023-05-17T00:54:02;102258.41;;;7.47;100.00
20043;BME280;10182;52.896;6.496;2023-05-17T00:59:06;102262.00;;;7.40;100.00
20043;BME280;10182;52.896;6.496;2023-05-17T01:04:09;102264.66;;;7.35;100.00
20043;BME280;10182;52.896;6.496;2023-05-17T01:09:11;102263.78;;;7.36;100.00
20043;BME280;10182;52.896;6.496;2023-05-17T01:14:27;102261.13;;;7.38;100.00
20043;BME280;10182;52.896;6.496;2023-05-17T01:19:44;102259.38;;;7.35;100.00
20043;BME280;10182;52.896;6.496;2023-05-17T01:24:52;102257.72;;;7.26;100.00
20043;BME280;10182;52.896;6.496;2023-05-17T01:30:01;102265.66;;;7.25;100.00
20043;BME280;10182;52.896;6.496;2023-05-17T01:35:03;102260.44;;;7.17;100.00
20043;BME280;10182;52.896;6.496;2023-05-17T01:40:06;102264.88;;;7.09;100.00
20043;BME280;10182;52.896;6.496;2023-05-17T01:45:14;102271.09;;;7.02;100.00
20043;BME280;10182;52.896;6.496;2023-05-17T01:50:22;102268.50;;;6.95;100.00
20043;BME280;10182;52.896;6.496;2023-05-17T01:55:27;102277.31;;;6.91;100.00
20043;BME280;10182;52.896;6.496;2023-05-17T02:00:35;102272.19;;;6.68;100.00
20043;BME280;10182;52.896;6.496;2023-05-17T02:05:39;102277.47;;;6.70;100.00
20043;BME280;10182;52.896;6.496;2023-05-17T02:10:40;102285.31;;;6.74;100.00
20043;BME280;10182;52.896;6.496;2023-05-17T02:15:43;102287.88;;;6.87;100.00
20043;BME280;10182;52.896;6.496;2023-05-17T02:20:45;102296.66;;;6.87;100.00
20043;BME280;10182;52.896;6.496;2023-05-17T02:25:47;102298.44;;;6.84;100.00
20043;BME280;10182;52.896;6.496;2023-05-17T02:30:50;102295.84;;;6.77;100.00
20043;BME280;10182;52.896;6.496;2023-05-17T02:35:52;102299.34;;;6.81;100.00
20043;BME280;10182;52.896;6.496;2023-05-17T02:40:54;102296.72;;;6.76;100.00
20043;BME280;10182;52.896;6.496;2023-05-17T02:45:57;102308.16;;;6.75;100.00
20043;BME280;10182;52.896;6.496;2023-05-17T02:50:58;102312.59;;;6.67;100.00
20043;BME280;10182;52.896;6.496;2023-05-17T02:56:00;102320.47;;;6.69;100.00
20043;BME280;10182;52.896;6.496;2023-05-17T03:01:04;102314.34;;;6.65;100.00
20043;BME280;10182;52.896;6.496;2023-05-17T03:06:06;102324.91;;;6.62;100.00
20043;BME280;10182;52.896;6.496;2023-05-17T03:11:08;102321.41;;;6.58;100.00
20043;BME280;10182;52.896;6.496;2023-05-17T03:16:11;102324.06;;;6.54;100.00
20043;BME280;10182;52.896;6.496;2023-05-17T03:21:13;102328.44;;;6.50;100.00
20043;BME280;10182;52.896;6.496;2023-05-17T03:26:14;102338.16;;;6.40;100.00
20043;BME280;10182;52.896;6.496;2023-05-17T03:31:19;102344.28;;;6.47;100.00
20043;BME280;10182;52.896;6.496;2023-05-17T03:36:21;102355.69;;;6.51;100.00
20043;BME280;10182;52.896;6.496;2023-05-17T03:41:23;102357.41;;;6.55;100.00
20043;BME280;10182;52.896;6.496;2023-05-17T03:46:26;102361.75;;;6.62;100.00
20043;BME280;10182;52.896;6.496;2023-05-17T03:51:28;102369.69;;;6.60;100.00
20043;BME280;10182;52.896;6.496;2023-05-17T03:56:30;102370.56;;;6.58;100.00
20043;BME280;10182;52.896;6.496;2023-05-17T04:01:33;102378.47;;;6.50;100.00
20043;BME280;10182;52.896;6.496;2023-05-17T04:06:35;102377.63;;;6.40;100.00
20043;BME280;10182;52.896;6.496;2023-05-17T04:11:37;102386.44;;;6.36;100.00
20043;BME280;10182;52.896;6.496;2023-05-17T04:16:41;102391.69;;;6.42;100.00
20043;BME280;10182;52.896;6.496;2023-05-17T04:21:43;102398.66;;;6.51;100.00
20043;BME280;10182;52.896;6.496;2023-05-17T04:26:45;102406.50;;;6.71;100.00
20043;BME280;10182;52.896;6.496;2023-05-17T04:31:48;102411.72;;;6.79;100.00
20043;BME280;10182;52.896;6.496;2023-05-17T04:36:50;102419.63;;;6.77;100.00
20043;BME280;10182;52.896;6.496;2023-05-17T04:41:52;102425.75;;;6.83;100.00
20043;BME280;10182;52.896;6.496;2023-05-17T04:46:55;102430.13;;;6.90;100.00
20043;BME280;10182;52.896;6.496;2023-05-17T04:51:57;102436.25;;;6.93;100.00
20043;BME280;10182;52.896;6.496;2023-05-17T04:56:58;102446.72;;;7.07;100.00
20043;BME280;10182;52.896;6.496;2023-05-17T05:02:01;102449.31;;;7.18;100.00
20043;BME280;10182;52.896;6.496;2023-05-17T05:07:04;102460.59;;;7.39;100.00
20043;BME280;10182;52.896;6.496;2023-05-17T05:12:06;102465.84;;;7.42;100.00
20043;BME280;10182;52.896;6.496;2023-05-17T05:17:10;102471.94;;;7.52;100.00
20043;BME280;10182;52.896;6.496;2023-05-17T05:22:11;102476.25;;;7.67;100.00
20043;BME280;10182;52.896;6.496;2023-05-17T05:27:13;102475.44;;;7.60;100.00
20043;BME280;10182;52.896;6.496;2023-05-17T05:32:16;102485.09;;;7.64;100.00
20043;BME280;10182;52.896;6.496;2023-05-17T05:37:18;102487.63;;;7.78;100.00
20043;BME280;10182;52.896;6.496;2023-05-17T05:42:20;102496.22;;;8.03;100.00
20043;BME280;10182;52.896;6.496;2023-05-17T05:47:23;102504.81;;;8.24;100.00
20043;BME280;10182;52.896;6.496;2023-05-17T05:52:24;102509.03;;;8.48;100.00
20043;BME280;10182;52.896;6.496;2023-05-17T05:57:26;102520.25;;;8.70;100.00
20043;BME280;10182;52.896;6.496;2023-05-17T06:02:29;102519.50;;;8.60;100.00
20043;BME280;10182;52.896;6.496;2023-05-17T06:07:30;102524.91;;;8.48;100.00
20043;BME280;10182;52.896;6.496;2023-05-17T06:12:32;102525.03;;;8.28;100.00
20043;BME280;10182;52.896;6.496;2023-05-17T06:17:35;102532.03;;;8.35;100.00
20043;BME280;10182;52.896;6.496;2023-05-17T06:22:37;102543.38;;;8.50;100.00
20043;BME280;10182;52.896;6.496;2023-05-17T06:27:39;102557.50;;;8.42;100.00
20043;BME280;10182;52.896;6.496;2023-05-17T06:32:42;102560.16;;;8.36;100.00
20043;BME280;10182;52.896;6.496;2023-05-17T06:37:43;102564.69;;;8.23;100.00
20043;BME280;10182;52.896;6.496;2023-05-17T06:42:45;102571.88;;;8.04;100.00
20043;BME280;10182;52.896;6.496;2023-05-17T06:47:48;102584.91;;;8.27;100.00
20043;BME280;10182;52.896;6.496;2023-05-17T06:52:50;102588.31;;;8.40;100.00
20043;BME280;10182;52.896;6.496;2023-05-17T06:57:51;102597.28;;;8.19;100.00
20043;BME280;10182;52.896;6.496;2023-05-17T07:02:54;102607.91;;;8.08;100.00
20043;BME280;10182;52.896;6.496;2023-05-17T07:07:57;102608.63;;;8.30;100.00
20043;BME280;10182;52.896;6.496;2023-05-17T07:12:59;102607.69;;;8.41;100.00
20043;BME280;10182;52.896;6.496;2023-05-17T07:18:02;102609.88;;;8.93;100.00
20043;BME280;10182;52.896;6.496;2023-05-17T07:23:04;102614.63;;;9.43;100.00
20043;BME280;10182;52.896;6.496;2023-05-17T07:28:06;102626.06;;;9.45;100.00
20043;BME280;10182;52.896;6.496;2023-05-17T07:33:09;102623.25;;;9.59;100.00
20043;BME280;10182;52.896;6.496;2023-05-17T07:38:11;102622.38;;;8.79;100.00
20043;BME280;10182;52.896;6.496;2023-05-17T07:43:12;102638.97;;;8.90;100.00
20043;BME280;10182;52.896;6.496;2023-05-17T07:48:15;102638.06;;;8.94;100.00
20043;BME280;10182;52.896;6.496;2023-05-17T07:53:17;102641.84;;;9.51;100.00
20043;BME280;10182;52.896;6.496;2023-05-17T07:58:19;102637.94;;;9.83;100.00
20043;BME280;10182;52.896;6.496;2023-05-17T08:03:22;102646.22;;;9.55;100.00
20043;BME280;10182;52.896;6.496;2023-05-17T08:08:23;102645.53;;;9.39;100.00
20043;BME280;10182;52.896;6.496;2023-05-17T08:13:25;102656.69;;;9.64;100.00
20043;BME280;10182;52.896;6.496;2023-05-17T08:18:28;102657.34;;;9.82;100.00
20043;BME280;10182;52.896;6.496;2023-05-17T08:23:30;102651.22;;;9.78;100.00
20043;BME280;10182;52.896;6.496;2023-05-17T08:28:31;102661.63;;;9.91;100.00
20043;BME280;10182;52.896;6.496;2023-05-17T08:33:35;102665.41;;;9.73;100.00
20043;BME280;10182;52.896;6.496;2023-05-17T08:38:37;102663.78;;;9.62;100.00
20043;BME280;10182;52.896;6.496;2023-05-17T08:43:39;102665.50;;;9.63;100.00
20043;BME280;10182;52.896;6.496;2023-05-17T08:48:43;102657.50;;;9.71;100.00
20043;BME280;10182;52.896;6.496;2023-05-17T08:53:46;102659.19;;;10.41;100.00
20043;BME280;10182;52.896;6.496;2023-05-17T08:58:52;102663.72;;;10.89;100.00
20043;BME280;10182;52.896;6.496;2023-05-17T09:03:58;102671.25;;;10.60;100.00
20043;BME280;10182;52.896;6.496;2023-05-17T09:09:00;102677.63;;;10.47;100.00
20043;BME280;10182;52.896;6.496;2023-05-17T09:14:03;102675.75;;;10.57;100.00
20043;BME280;10182;52.896;6.496;2023-05-17T09:19:07;102673.38;;;10.93;100.00
20043;BME280;10182;52.896;6.496;2023-05-17T09:24:09;102679.72;;;10.82;100.00
20043;BME280;10182;52.896;6.496;2023-05-17T09:29:12;102685.09;;;10.78;100.00
20043;BME280;10182;52.896;6.496;2023-05-17T09:34:18;102684.59;;;10.56;100.00
20043;BME280;10182;52.896;6.496;2023-05-17T09:39:19;102665.50;;;10.87;100.00
20043;BME280;10182;52.896;6.496;2023-05-17T09:44:23;102680.72;;;11.27;100.00
20043;BME280;10182;52.896;6.496;2023-05-17T09:49:26;102684.06;;;10.87;100.00
20043;BME280;10182;52.896;6.496;2023-05-17T09:54:30;102684.66;;;10.49;100.00
20043;BME280;10182;52.896;6.496;2023-05-17T09:59:32;102689.94;;;10.51;100.00
20043;BME280;10182;52.896;6.496;2023-05-17T10:04:36;102700.91;;;10.23;100.00
20043;BME280;10182;52.896;6.496;2023-05-17T10:09:38;102677.69;;;10.98;100.00
20043;BME280;10182;52.896;6.496;2023-05-17T10:14:43;102697.19;;;11.44;100.00
20043;BME280;10182;52.896;6.496;2023-05-17T10:19:46;102688.91;;;11.14;100.00
20043;BME280;10182;52.896;6.496;2023-05-17T10:24:49;102706.22;;;10.84;100.00
20043;BME280;10182;52.896;6.496;2023-05-17T10:29:52;102709.34;;;11.08;100.00
20043;BME280;10182;52.896;6.496;2023-05-17T10:34:56;102698.53;;;11.65;100.00
20043;BME280;10182;52.896;6.496;2023-05-17T10:39:59;102705.59;;;11.21;100.00
20043;BME280;10182;52.896;6.496;2023-05-17T10:45:00;102703.59;;;10.81;97.21
20043;BME280;10182;52.896;6.496;2023-05-17T10:50:09;102705.34;;;11.33;100.00
20043;BME280;10182;52.896;6.496;2023-05-17T10:55:12;102709.00;;;11.28;100.00
20043;BME280;10182;52.896;6.496;2023-05-17T11:00:18;102695.22;;;11.54;100.00
20043;BME280;10182;52.896;6.496;2023-05-17T11:05:25;102701.97;;;11.71;86.03
20043;BME280;10182;52.896;6.496;2023-05-17T11:10:27;102703.59;;;11.32;88.06
20043;BME280;10182;52.896;6.496;2023-05-17T11:15:32;102704.84;;;11.60;100.00
20043;BME280;10182;52.896;6.496;2023-05-17T11:20:35;102702.59;;;11.83;82.98
20043;BME280;10182;52.896;6.496;2023-05-17T11:25:37;102700.09;;;12.19;99.97
20043;BME280;10182;52.896;6.496;2023-05-17T11:30:40;102700.78;;;11.42;92.82
20043;BME280;10182;52.896;6.496;2023-05-17T11:35:44;102694.66;;;11.82;100.00
20043;BME280;10182;52.896;6.496;2023-05-17T11:40:47;102690.59;;;12.08;90.94
20043;BME280;10182;52.896;6.496;2023-05-17T11:45:50;102696.75;;;11.67;87.70
20043;BME280;10182;52.896;6.496;2023-05-17T11:50:54;102703.03;;;12.07;93.43
20043;BME280;10182;52.896;6.496;2023-05-17T11:55:56;102711.03;;;12.06;86.25
20043;BME280;10182;52.896;6.496;2023-05-17T12:01:02;102698.25;;;11.79;95.72
20043;BME280;10182;52.896;6.496;2023-05-17T12:06:08;102701.53;;;11.92;100.00
20043;BME280;10182;52.896;6.496;2023-05-17T12:11:12;102697.72;;;12.07;88.88
20043;BME280;10182;52.896;6.496;2023-05-17T12:16:15;102687.59;;;12.23;84.38
20043;BME280;10182;52.896;6.496;2023-05-17T12:21:18;102698.75;;;11.98;98.53
20043;BME280;10182;52.896;6.496;2023-05-17T12:26:21;102698.91;;;11.47;97.86
20043;BME280;10182;52.896;6.496;2023-05-17T12:31:26;102696.59;;;11.74;99.69
20043;BME280;10182;52.896;6.496;2023-05-17T12:36:31;102692.59;;;11.98;84.76
20043;BME280;10182;52.896;6.496;2023-05-17T12:41:34;102679.16;;;12.04;100.00
20043;BME280;10182;52.896;6.496;2023-05-17T12:46:36;102677.34;;;11.64;100.00
20043;BME280;10182;52.896;6.496;2023-05-17T12:51:43;102684.94;;;11.81;97.30
20043;BME280;10182;52.896;6.496;2023-05-17T12:56:45;102684.44;;;12.45;92.86
20043;BME280;10182;52.896;6.496;2023-05-17T13:01:47;102678.81;;;12.57;81.64
20043;BME280;10182;52.896;6.496;2023-05-17T13:06:52;102680.91;;;12.05;96.31
20043;BME280;10182;52.896;6.496;2023-05-17T13:11:55;102684.38;;;11.66;92.11
20043;BME280;10182;52.896;6.496;2023-05-17T13:16:56;102676.06;;;12.24;86.17
20043;BME280;10182;52.896;6.496;2023-05-17T13:21:59;102690.28;;;12.22;90.03
20043;BME280;10182;52.896;6.496;2023-05-17T13:27:01;102691.53;;;12.05;92.27
20043;BME280;10182;52.896;6.496;2023-05-17T13:32:04;102687.97;;;12.06;85.89
20043;BME280;10182;52.896;6.496;2023-05-17T13:37:07;102680.72;;;12.14;89.44
20043;BME280;10182;52.896;6.496;2023-05-17T13:42:09;102680.16;;;12.39;90.90
20043;BME280;10182;52.896;6.496;2023-05-17T13:47:11;102674.09;;;12.32;100.00
20043;BME280;10182;52.896;6.496;2023-05-17T13:52:14;102685.13;;;12.15;100.00
20043;BME280;10182;52.896;6.496;2023-05-17T13:57:17;102685.47;;;11.98;90.17
20043;BME280;10182;52.896;6.496;2023-05-17T14:02:19;102676.97;;;12.23;90.46
20043;BME280;10182;52.896;6.496;2023-05-17T14:07:22;102681.59;;;12.52;87.87
20043;BME280;10182;52.896;6.496;2023-05-17T14:12:24;102691.25;;;12.57;83.66
20043;BME280;10182;52.896;6.496;2023-05-17T14:17:26;102683.69;;;12.00;84.18
20043;BME280;10182;52.896;6.496;2023-05-17T14:22:29;102692.00;;;12.24;83.33
20043;BME280;10182;52.896;6.496;2023-05-17T14:27:30;102688.31;;;12.30;84.50
20043;BME280;10182;52.896;6.496;2023-05-17T14:32:32;102679.47;;;12.31;83.41
20043;BME280;10182;52.896;6.496;2023-05-17T14:37:36;102684.03;;;12.98;91.72
20043;BME280;10182;52.896;6.496;2023-05-17T14:42:37;102683.75;;;13.09;83.04
20043;BME280;10182;52.896;6.496;2023-05-17T14:47:39;102691.41;;;12.86;91.87
20043;BME280;10182;52.896;6.496;2023-05-17T14:52:42;102690.66;;;12.45;91.04
20043;BME280;10182;52.896;6.496;2023-05-17T14:57:44;102687.81;;;12.14;89.32
20043;BME280;10182;52.896;6.496;2023-05-17T15:02:47;102686.75;;;12.60;87.45
20043;BME280;10182;52.896;6.496;2023-05-17T15:07:50;102695.38;;;13.04;90.92
20043;BME280;10182;52.896;6.496;2023-05-17T15:12:51;102699.19;;;12.58;90.45
20043;BME280;10182;52.896;6.496;2023-05-17T15:17:53;102713.06;;;12.33;86.96
20043;BME280;10182;52.896;6.496;2023-05-17T15:22:56;102709.16;;;12.09;98.90
20043;BME280;10182;52.896;6.496;2023-05-17T15:27:58;102703.84;;;11.65;100.00
20043;BME280;10182;52.896;6.496;2023-05-17T15:33:00;102696.25;;;11.45;98.23
20043;BME280;10182;52.896;6.496;2023-05-17T15:38:03;102691.72;;;11.96;100.00
20043;BME280;10182;52.896;6.496;2023-05-17T15:43:06;102699.88;;;11.87;100.00
20043;BME280;10182;52.896;6.496;2023-05-17T15:48:07;102691.69;;;11.55;100.00
20043;BME280;10182;52.896;6.496;2023-05-17T15:53:12;102694.25;;;11.58;100.00
20043;BME280;10182;52.896;6.496;2023-05-17T15:58:14;102697.72;;;11.15;100.00
20043;BME280;10182;52.896;6.496;2023-05-17T16:03:15;102706.56;;;11.15;100.00
20043;BME280;10182;52.896;6.496;2023-05-17T16:08:19;102719.81;;;11.17;100.00
20043;BME280;10182;52.896;6.496;2023-05-17T16:13:21;102710.91;;;11.20;100.00
20043;BME280;10182;52.896;6.496;2023-05-17T16:18:22;102720.84;;;11.07;100.00
20043;BME280;10182;52.896;6.496;2023-05-17T16:23:25;102716.38;;;11.57;100.00
20043;BME280;10182;52.896;6.496;2023-05-17T16:28:27;102705.47;;;11.26;100.00
20043;BME280;10182;52.896;6.496;2023-05-17T16:33:31;102713.56;;;11.20;100.00
20043;BME280;10182;52.896;6.496;2023-05-17T16:38:34;102714.44;;;11.20;100.00
20043;BME280;10182;52.896;6.496;2023-05-17T16:43:36;102730.78;;;10.95;100.00
20043;BME280;10182;52.896;6.496;2023-05-17T16:48:38;102725.53;;;10.92;100.00
20043;BME280;10182;52.896;6.496;2023-05-17T16:53:41;102731.50;;;11.05;99.28
20043;BME280;10182;52.896;6.496;2023-05-17T16:58:43;102728.56;;;10.69;100.00
20043;BME280;10182;52.896;6.496;2023-05-17T17:03:44;102733.59;;;10.84;100.00
20043;BME280;10182;52.896;6.496;2023-05-17T17:08:47;102738.19;;;10.73;100.00
20043;BME280;10182;52.896;6.496;2023-05-17T17:13:49;102736.72;;;10.55;100.00
20043;BME280;10182;52.896;6.496;2023-05-17T17:18:51;102740.09;;;10.65;100.00
20043;BME280;10182;52.896;6.496;2023-05-17T17:23:55;102748.41;;;10.39;100.00
20043;BME280;10182;52.896;6.496;2023-05-17T17:28:57;102739.97;;;10.09;100.00
20043;BME280;10182;52.896;6.496;2023-05-17T17:33:59;102744.63;;;9.87;100.00
20043;BME280;10182;52.896;6.496;2023-05-17T17:39:02;102742.03;;;9.83;100.00
20043;BME280;10182;52.896;6.496;2023-05-17T17:44:03;102743.97;;;9.69;100.00
20043;BME280;10182;52.896;6.496;2023-05-17T17:49:05;102743.16;;;9.59;100.00
20043;BME280;10182;52.896;6.496;2023-05-17T17:54:08;102752.75;;;9.71;100.00
20043;BME280;10182;52.896;6.496;2023-05-17T17:59:10;102743.81;;;9.81;100.00
20043;BME280;10182;52.896;6.496;2023-05-17T18:04:12;102746.34;;;9.92;100.00
20043;BME280;10182;52.896;6.496;2023-05-17T18:09:16;102747.03;;;10.07;100.00
20043;BME280;10182;52.896;6.496;2023-05-17T18:14:18;102750.66;;;10.01;100.00
20043;BME280;10182;52.896;6.496;2023-05-17T18:19:21;102755.91;;;10.04;100.00
20043;BME280;10182;52.896;6.496;2023-05-17T18:24:24;102760.59;;;9.80;100.00
20043;BME280;10182;52.896;6.496;2023-05-17T18:29:25;102763.41;;;9.63;100.00
20043;BME280;10182;52.896;6.496;2023-05-17T18:34:27;102762.72;;;9.44;100.00
20043;BME280;10182;52.896;6.496;2023-05-17T18:39:30;102771.72;;;9.29;100.00
20043;BME280;10182;52.896;6.496;2023-05-17T18:44:32;102763.84;;;9.20;100.00
20043;BME280;10182;52.896;6.496;2023-05-17T18:49:34;102776.28;;;9.06;100.00
20043;BME280;10182;52.896;6.496;2023-05-17T18:54:39;102771.16;;;8.86;100.00
20043;BME280;10182;52.896;6.496;2023-05-17T18:59:41;102774.63;;;8.92;100.00
20043;BME280;10182;52.896;6.496;2023-05-17T19:04:43;102784.41;;;8.79;100.00
20043;BME280;10182;52.896;6.496;2023-05-17T19:09:46;102784.38;;;8.84;100.00
20043;BME280;10182;52.896;6.496;2023-05-17T19:14:47;102785.34;;;8.72;100.00
20043;BME280;10182;52.896;6.496;2023-05-17T19:19:49;102786.31;;;8.54;100.00
20043;BME280;10182;52.896;6.496;2023-05-17T19:24:55;102781.06;;;8.42;100.00
20043;BME280;10182;52.896;6.496;2023-05-17T19:29:57;102783.78;;;8.26;100.00
20043;BME280;10182;52.896;6.496;2023-05-17T19:34:58;102783.84;;;8.14;100.00
20043;BME280;10182;52.896;6.496;2023-05-17T19:40:02;102792.72;;;7.94;100.00
20043;BME280;10182;52.896;6.496;2023-05-17T19:45:07;102790.97;;;7.92;100.00
20043;BME280;10182;52.896;6.496;2023-05-17T19:50:10;102789.25;;;7.85;100.00
20043;BME280;10182;52.896;6.496;2023-05-17T19:55:14;102797.16;;;7.75;100.00
20043;BME280;10182;52.896;6.496;2023-05-17T20:00:21;102792.75;;;7.77;100.00
20043;BME280;10182;52.896;6.496;2023-05-17T20:05:22;102789.25;;;7.74;100.00
20043;BME280;10182;52.896;6.496;2023-05-17T20:10:28;102789.28;;;7.72;100.00
20043;BME280;10182;52.896;6.496;2023-05-17T20:15:30;102786.63;;;7.74;100.00
20043;BME280;10182;52.896;6.496;2023-05-17T20:20:32;102792.75;;;7.77;100.00
20043;BME280;10182;52.896;6.496;2023-05-17T20:25:35;102791.84;;;7.83;100.00
20043;BME280;10182;52.896;6.496;2023-05-17T20:30:40;102785.69;;;7.86;100.00
20043;BME280;10182;52.896;6.496;2023-05-17T20:35:43;102791.00;;;7.81;100.00
20043;BME280;10182;52.896;6.496;2023-05-17T20:40:47;102791.88;;;7.80;100.00
20043;BME280;10182;52.896;6.496;2023-05-17T20:45:48;102790.16;;;7.71;100.00
20043;BME280;10182;52.896;6.496;2023-05-17T20:50:52;102786.63;;;7.69;100.00
20043;BME280;10182;52.896;6.496;2023-05-17T20:55:56;102805.09;;;7.58;100.00
20043;BME280;10182;52.896;6.496;2023-05-17T21:00:58;102802.47;;;7.54;100.00
20043;BME280;10182;52.896;6.496;2023-05-17T21:06:00;102800.72;;;7.53;100.00
20043;BME280;10182;52.896;6.496;2023-05-17T21:11:05;102801.59;;;7.45;100.00
20043;BME280;10182;52.896;6.496;2023-05-17T21:16:07;102799.84;;;7.41;100.00
20043;BME280;10182;52.896;6.496;2023-05-17T21:21:09;102794.59;;;7.26;100.00
20043;BME280;10182;52.896;6.496;2023-05-17T21:26:14;102798.97;;;7.11;100.00
20043;BME280;10182;52.896;6.496;2023-05-17T21:31:16;102796.31;;;6.99;100.00
20043;BME280;10182;52.896;6.496;2023-05-17T21:36:18;102793.69;;;6.90;100.00
20043;BME280;10182;52.896;6.496;2023-05-17T21:41:21;102796.31;;;6.87;100.00
20043;BME280;10182;52.896;6.496;2023-05-17T21:46:22;102797.22;;;6.92;100.00
20043;BME280;10182;52.896;6.496;2023-05-17T21:51:24;102792.81;;;6.86;100.00
20043;BME280;10182;52.896;6.496;2023-05-17T21:56:27;102790.16;;;6.74;100.00
20043;BME280;10182;52.896;6.496;2023-05-17T22:01:29;102785.75;;;6.71;100.00
20043;BME280;10182;52.896;6.496;2023-05-17T22:06:31;102793.63;;;6.64;100.00
20043;BME280;10182;52.896;6.496;2023-05-17T22:11:34;102792.75;;;6.63;100.00
20043;BME280;10182;52.896;6.496;2023-05-17T22:16:38;102785.69;;;6.56;100.00
20043;BME280;10182;52.896;6.496;2023-05-17T22:21:40;102786.56;;;6.52;100.00
20043;BME280;10182;52.896;6.496;2023-05-17T22:26:43;102784.81;;;6.49;100.00
20043;BME280;10182;52.896;6.496;2023-05-17T22:31:44;102781.31;;;6.47;100.00
20043;BME280;10182;52.896;6.496;2023-05-17T22:36:46;102791.00;;;6.62;100.00
20043;BME280;10182;52.896;6.496;2023-05-17T22:41:49;102789.25;;;6.66;100.00
20043;BME280;10182;52.896;6.496;2023-05-17T22:46:51;102792.75;;;6.63;100.00
20043;BME280;10182;52.896;6.496;2023-05-17T22:51:56;102797.13;;;6.56;100.00
20043;BME280;10182;52.896;6.496;2023-05-17T22:57:06;102795.38;;;6.60;100.00
20043;BME280;10182;52.896;6.496;2023-05-17T23:02:09;102798.91;;;6.62;100.00
20043;BME280;10182;52.896;6.496;2023-05-17T23:07:11;102806.81;;;6.64;100.00
20043;BME280;10182;52.896;6.496;2023-05-17T23:12:15;102805.94;;;6.63;100.00
20043;BME280;10182;52.896;6.496;2023-05-17T23:17:17;102797.13;;;6.58;100.00
20043;BME280;10182;52.896;6.496;2023-05-17T23:22:18;102795.38;;;6.55;100.00
20043;BME280;10182;52.896;6.496;2023-05-17T23:27:22;102799.78;;;6.55;100.00
20043;BME280;10182;52.896;6.496;2023-05-17T23:32:25;102805.91;;;6.57;100.00
20043;BME280;10182;52.896;6.496;2023-05-17T23:37:26;102804.16;;;6.62;100.00
20043;BME280;10182;52.896;6.496;2023-05-17T23:42:29;102797.13;;;6.58;100.00
20043;BME280;10182;52.896;6.496;2023-05-17T23:47:31;102798.00;;;6.52;100.00
20043;BME280;10182;52.896;6.496;2023-05-17T23:52:33;102787.44;;;6.43;100.00
20043;BME280;10182;52.896;6.496;2023-05-17T23:57:39;102783.00;;;6.33;100.00
